createdAt,value
2022-10-26T00:01:16.041Z,2.92
2022-10-26T00:06:22.462Z,2.78
2022-10-26T00:11:24.474Z,3.75
2022-10-26T00:16:27.620Z,3.33
2022-10-26T00:21:29.040Z,2.97
2022-10-26T00:26:30.500Z,3.13
2022-10-26T00:31:32.426Z,2.70
2022-10-26T00:36:33.824Z,2.85
2022-10-26T00:41:35.229Z,2.90
2022-10-26T00:46:38.425Z,2.53
2022-10-26T00:51:44.310Z,2.60
2022-10-26T00:56:49.412Z,2.30
2022-10-26T01:01:51.832Z,3.00
2022-10-26T01:06:53.317Z,3.35
2022-10-26T01:11:54.895Z,2.95
2022-10-26T01:17:15.135Z,2.58
2022-10-26T01:22:22.218Z,2.50
2022-10-26T01:27:41.194Z,2.55
2022-10-26T01:32:51.371Z,2.55
2022-10-26T01:37:58.729Z,2.80
2022-10-26T01:43:04.513Z,2.85
2022-10-26T01:48:09.357Z,3.08
2022-10-26T01:53:15.123Z,2.25
2022-10-26T01:58:44.599Z,2.42
2022-10-26T02:09:54.588Z,2.17
2022-10-26T02:15:06.511Z,2.42
2022-10-26T02:20:13.300Z,2.67
2022-10-26T02:25:20.740Z,2.80
2022-10-26T02:35:30.470Z,2.60
2022-10-26T02:40:32.718Z,3.67
2022-10-26T02:45:46.261Z,4.70
2022-10-26T02:51:03.725Z,5.20
2022-10-26T02:56:16.693Z,5.53
2022-10-26T03:01:18.350Z,5.07
2022-10-26T03:06:24.152Z,4.85
2022-10-26T03:11:25.553Z,5.25
2022-10-26T03:16:27.259Z,4.95
2022-10-26T03:21:28.664Z,5.93
2022-10-26T03:26:30.055Z,4.93
2022-10-26T03:31:31.482Z,6.20
2022-10-26T03:36:32.887Z,4.53
2022-10-26T03:41:34.287Z,4.13
2022-10-26T03:46:35.680Z,4.15
2022-10-26T03:51:37.115Z,3.50
2022-10-26T03:56:38.522Z,4.07
2022-10-26T04:01:40.070Z,3.45
2022-10-26T04:06:41.697Z,3.20
2022-10-26T04:11:43.155Z,3.53
2022-10-26T04:16:44.552Z,3.63
2022-10-26T04:21:45.947Z,2.80
2022-10-26T04:26:47.354Z,2.83
2022-10-26T04:31:48.746Z,2.05
2022-10-26T04:36:50.134Z,1.98
2022-10-26T04:41:51.582Z,1.40
2022-10-26T04:46:52.982Z,1.33
2022-10-26T04:51:54.357Z,1.20
2022-10-26T04:56:55.732Z,1.30
2022-10-26T05:01:57.369Z,1.52
2022-10-26T05:06:58.873Z,1.83
2022-10-26T05:12:00.260Z,1.92
2022-10-26T05:17:01.730Z,1.65
2022-10-26T05:22:03.342Z,2.67
2022-10-26T05:27:04.793Z,1.75
2022-10-26T05:32:06.191Z,1.83
2022-10-26T05:37:07.588Z,2.13
2022-10-26T05:42:09.241Z,2.17
2022-10-26T05:47:10.662Z,2.20
2022-10-26T05:52:12.058Z,2.10
2022-10-26T05:57:13.914Z,1.88
2022-10-26T06:02:33.065Z,1.52
2022-10-26T06:07:34.778Z,1.80
2022-10-26T06:12:36.470Z,1.88
2022-10-26T06:17:55.168Z,1.70
2022-10-26T06:23:15.060Z,1.80
2022-10-26T06:28:35.081Z,1.75
2022-10-26T06:33:36.517Z,2.25
2022-10-26T06:38:39.866Z,2.33
2022-10-26T06:43:41.807Z,1.42
2022-10-26T06:48:59.462Z,1.88
2022-10-26T06:54:14.029Z,1.88
2022-10-26T06:59:25.448Z,2.20
2022-10-26T07:04:26.859Z,1.80
2022-10-26T07:09:28.265Z,2.00
2022-10-26T07:14:29.675Z,2.50
2022-10-26T07:19:31.399Z,2.00
2022-10-26T07:24:32.833Z,2.00
2022-10-26T07:29:34.254Z,2.60
2022-10-26T07:34:35.655Z,2.22
2022-10-26T07:39:37.054Z,1.73
2022-10-26T07:44:38.453Z,1.75
2022-10-26T07:49:40.077Z,1.98
2022-10-26T07:54:41.470Z,1.88
2022-10-26T07:59:42.858Z,1.60
2022-10-26T08:04:44.289Z,1.63
2022-10-26T08:09:45.684Z,2.05
2022-10-26T08:14:47.344Z,1.63
2022-10-26T08:19:48.792Z,1.58
2022-10-26T08:24:50.197Z,2.15
2022-10-26T08:29:51.656Z,1.80
2022-10-26T08:34:53.035Z,1.67
2022-10-26T08:39:55.893Z,2.25
2022-10-26T08:45:12.581Z,1.65
2022-10-26T08:50:27.395Z,2.65
2022-10-26T09:00:51.621Z,1.60
2022-10-26T09:06:08.854Z,3.63
2022-10-26T09:11:13.291Z,1.80
2022-10-26T09:16:31.508Z,2.63
2022-10-26T09:21:59.983Z,1.58
2022-10-26T09:27:21.591Z,1.70
2022-10-26T09:32:41.203Z,1.50
2022-10-26T09:37:55.128Z,1.40
2022-10-26T09:43:26.514Z,2.05
2022-10-26T09:48:36.672Z,2.03
2022-10-26T09:53:38.059Z,2.05
2022-10-26T09:59:02.169Z,2.08
2022-10-26T10:04:15.398Z,1.92
2022-10-26T10:09:19.238Z,1.70
2022-10-26T10:14:55.402Z,2.10
2022-10-26T10:20:07.601Z,1.60
2022-10-26T10:25:23.561Z,1.30
2022-10-26T10:30:33.517Z,1.55
2022-10-26T10:35:35.517Z,0.90
2022-10-26T10:40:37.034Z,1.85
2022-10-26T10:45:38.843Z,1.05
2022-10-26T10:51:05.260Z,1.27
2022-10-26T10:56:25.123Z,1.40
2022-10-26T11:01:32.416Z,1.40
2022-10-26T11:06:37.614Z,1.33
2022-10-26T11:11:45.561Z,1.15
2022-10-26T11:16:51.675Z,1.50
2022-10-26T11:21:56.507Z,1.20
2022-10-26T11:27:05.039Z,1.58
2022-10-26T11:32:16.561Z,1.38
2022-10-26T11:37:28.740Z,1.30
2022-10-26T11:42:32.912Z,1.30
2022-10-26T11:47:42.584Z,1.00
2022-10-26T11:53:03.250Z,1.00
2022-10-26T11:58:05.327Z,1.92
2022-10-26T12:03:13.874Z,1.48
2022-10-26T12:08:28.005Z,1.58
2022-10-26T12:13:36.060Z,1.00
2022-10-26T12:19:01.025Z,1.55
2022-10-26T12:24:22.348Z,1.30
2022-10-26T12:29:29.232Z,1.88
2022-10-26T12:34:30.591Z,1.27
2022-10-26T12:39:35.990Z,1.55
2022-10-26T12:44:43.474Z,1.90
2022-10-26T12:50:06.503Z,1.58
2022-10-26T12:55:29.145Z,2.05
2022-10-26T13:00:33.282Z,3.13
2022-10-26T13:05:59.439Z,2.63
2022-10-26T13:11:16.218Z,1.67
2022-10-26T13:16:17.775Z,1.30
2022-10-26T13:21:22.175Z,1.85
2022-10-26T13:26:26.022Z,2.13
2022-10-26T13:31:30.358Z,2.20
2022-10-26T13:36:50.494Z,2.05
2022-10-26T13:41:54.633Z,1.70
2022-10-26T13:47:03.714Z,2.20
2022-10-26T13:52:12.356Z,2.40
2022-10-26T13:57:22.713Z,2.53
2022-10-26T14:02:28.751Z,1.73
2022-10-26T14:07:44.755Z,1.98
2022-10-26T14:12:46.309Z,3.22
2022-10-26T14:17:51.366Z,2.17
2022-10-26T14:22:53.053Z,3.28
2022-10-26T14:27:54.486Z,2.88
2022-10-26T14:32:56.600Z,2.20
2022-10-26T14:38:02.793Z,2.15
2022-10-26T14:43:05.590Z,2.33
2022-10-26T14:48:07.495Z,2.38
2022-10-26T14:53:15.605Z,2.95
2022-10-26T15:03:35.051Z,1.98
2022-10-26T15:08:52.652Z,3.03
2022-10-26T15:14:00.230Z,2.13
2022-10-26T15:19:09.561Z,2.30
2022-10-26T15:24:30.170Z,3.33
2022-10-26T15:29:38.525Z,2.63
2022-10-26T15:34:40.002Z,2.88
2022-10-26T15:39:41.390Z,2.88
2022-10-26T15:44:42.802Z,2.67
2022-10-26T15:49:44.225Z,2.72
2022-10-26T15:54:46.194Z,2.03
2022-10-26T15:59:47.586Z,2.88
2022-10-26T16:04:48.978Z,2.40
2022-10-26T16:09:50.458Z,2.40
2022-10-26T16:15:05.164Z,3.22
2022-10-26T16:20:12.612Z,3.15
2022-10-26T16:25:22.226Z,3.83
2022-10-26T16:30:25.914Z,3.22
2022-10-26T16:35:29.637Z,3.58
2022-10-26T16:40:31.054Z,22.42
2022-10-26T16:45:32.440Z,11.90
2022-10-26T16:50:36.309Z,9.10
2022-10-26T16:55:38.034Z,11.27
2022-10-26T17:00:39.464Z,7.05
2022-10-26T17:05:40.848Z,5.90
2022-10-26T17:10:42.233Z,3.10
2022-10-26T17:15:43.644Z,2.95
2022-10-26T17:20:51.366Z,3.83
2022-10-26T17:25:52.864Z,3.60
2022-10-26T17:31:07.594Z,3.08
2022-10-26T17:36:10.565Z,4.07
2022-10-26T17:41:14.199Z,3.40
2022-10-26T17:46:21.201Z,4.53
2022-10-26T17:51:22.709Z,3.20
2022-10-26T17:56:29.709Z,3.33
2022-10-26T18:01:31.995Z,3.22
2022-10-26T18:06:34.006Z,3.80
2022-10-26T18:11:35.743Z,3.42
2022-10-26T18:16:37.118Z,3.15
2022-10-26T18:21:38.512Z,3.63
2022-10-26T18:26:39.935Z,3.40
2022-10-26T18:31:43.601Z,3.25
2022-10-26T18:36:44.998Z,4.13
2022-10-26T18:41:46.397Z,4.22
2022-10-26T18:46:47.800Z,3.65
2022-10-26T18:51:49.197Z,3.40
2022-10-26T18:56:50.602Z,3.60
2022-10-26T19:01:52.448Z,4.35
2022-10-26T19:06:53.938Z,4.07
2022-10-26T19:11:57.958Z,3.15
2022-10-26T19:17:01.639Z,4.20
2022-10-26T19:22:03.491Z,3.30
2022-10-26T19:27:05.022Z,4.15
2022-10-26T19:32:06.445Z,3.30
2022-10-26T19:37:07.875Z,4.00
2022-10-26T19:42:09.259Z,3.45
2022-10-26T19:47:10.683Z,3.38
2022-10-26T19:52:12.087Z,3.45
2022-10-26T19:57:13.533Z,4.00
2022-10-26T20:02:14.931Z,3.88
2022-10-26T20:07:16.368Z,3.53
2022-10-26T20:12:17.751Z,3.65
2022-10-26T20:17:19.134Z,3.05
2022-10-26T20:22:20.524Z,3.30
2022-10-26T20:27:21.930Z,3.78
2022-10-26T20:32:24.609Z,3.40
2022-10-26T20:37:26.462Z,3.65
2022-10-26T20:42:28.510Z,3.78
2022-10-26T20:47:30.833Z,3.33
2022-10-26T20:52:50.798Z,3.75
2022-10-26T20:57:58.484Z,3.00
2022-10-26T21:02:59.854Z,3.85
2022-10-26T21:08:01.260Z,4.53
2022-10-26T21:13:02.772Z,3.38
2022-10-26T21:18:04.332Z,3.53
2022-10-26T21:23:05.702Z,3.33
2022-10-26T21:28:07.086Z,3.40
2022-10-26T21:33:08.465Z,3.75
2022-10-26T21:38:09.859Z,3.60
2022-10-26T21:43:11.264Z,5.03
2022-10-26T21:48:12.701Z,3.75
2022-10-26T21:53:14.081Z,5.07
2022-10-26T21:58:18.804Z,3.90
2022-10-26T22:03:20.223Z,3.35
2022-10-26T22:08:21.728Z,3.85
2022-10-26T22:13:23.337Z,3.80
2022-10-26T22:18:24.945Z,4.95
2022-10-26T22:23:26.490Z,4.00
2022-10-26T22:28:27.887Z,3.85
2022-10-26T22:33:29.322Z,3.60
2022-10-26T22:38:30.795Z,3.67
2022-10-26T22:43:32.433Z,3.20
2022-10-26T22:48:34.914Z,3.25
2022-10-26T22:53:36.943Z,4.05
2022-10-26T22:58:39.139Z,3.83
2022-10-26T23:03:40.851Z,4.28
2022-10-26T23:08:42.414Z,3.47
2022-10-26T23:13:44.230Z,3.17
2022-10-26T23:18:46.646Z,3.10
2022-10-26T23:23:48.318Z,3.33
2022-10-26T23:28:50.279Z,4.97
2022-10-26T23:33:53.243Z,4.03
2022-10-26T23:38:54.645Z,3.80
2022-10-26T23:43:56.032Z,4.32
2022-10-26T23:48:57.422Z,3.30
2022-10-26T23:53:58.806Z,3.10
2022-10-26T23:59:00.306Z,4.05
